Time;durP1;ratioP1;P1;durP2;ratioP2;P2;SDS_P1;SDS_P2;PMS_P1;PMS_P2;Temp;Humidity;BMP_temperature;BMP_pressure;BME280_temperature;BME280_humidity;BME280_pressure;Samples;Min_cycle;Max_cycle;Signal;HPM_P1;HPM_P2
2023/04/22 00:01:02;;;;;;;10.05;5.72;;;;;;;15.07;78.51;94313.63;5017966;28;20022;-91
2023/04/22 00:03:28;;;;;;;12.75;6.40;;;;;;;15.01;78.84;94306.88;5018014;28;20064;-91
2023/04/22 00:05:58;;;;;;;13.20;6.70;;;;;;;15.20;78.58;94309.38;5001604;28;20427;-90
2023/04/22 00:08:24;;;;;;;11.75;7.32;;;;;;;15.01;81.83;94304.22;5017564;28;20068;-91
2023/04/22 00:10:50;;;;;;;13.07;7.32;;;;;;;14.66;87.32;94306.50;5017648;28;20092;-91
2023/04/22 00:13:15;;;;;;;11.15;6.72;;;;;;;14.89;83.40;94301.31;5017557;28;20033;-91
2023/04/22 00:15:40;;;;;;;13.00;7.03;;;;;;;14.97;81.53;94303.28;5017139;28;20068;-91
2023/04/22 00:18:12;;;;;;;11.95;6.47;;;;;;;15.12;81.22;94304.78;5017249;28;20038;-90
2023/04/22 00:20:38;;;;;;;13.40;6.88;;;;;;;14.84;81.59;94305.63;5002370;28;20332;-90
2023/04/22 00:23:03;;;;;;;12.50;6.70;;;;;;;14.82;83.34;94307.00;5017442;28;20026;-90
2023/04/22 00:25:29;;;;;;;11.88;6.43;;;;;;;14.61;85.45;94298.69;5017220;28;20030;-92
2023/04/22 00:27:54;;;;;;;12.13;6.35;;;;;;;14.75;82.62;94304.00;5001018;28;20133;-91
2023/04/22 00:30:19;;;;;;;16.10;7.80;;;;;;;14.65;84.06;94297.03;5000764;28;20034;-91
2023/04/22 00:32:45;;;;;;;17.05;8.20;;;;;;;14.54;85.62;94315.69;5017120;28;20342;-92
2023/04/22 00:35:10;;;;;;;12.07;6.55;;;;;;;14.59;81.87;94301.63;5001080;28;20040;-91
2023/04/22 00:37:36;;;;;;;7.78;5.18;;;;;;;14.74;78.96;94310.34;5000973;28;20034;-91
2023/04/22 00:40:01;;;;;;;9.73;5.57;;;;;;;14.65;78.73;94308.34;5000827;28;20034;-91
2023/04/22 00:42:27;;;;;;;8.77;5.20;;;;;;;14.68;75.92;94310.38;5018153;28;20029;-90
2023/04/22 00:44:53;;;;;;;9.55;5.47;;;;;;;14.68;78.73;94312.25;5000891;28;20029;-91
2023/04/22 00:47:19;;;;;;;8.82;5.18;;;;;;;14.75;80.49;94310.03;5000829;28;20025;-92
2023/04/22 00:49:45;;;;;;;9.35;5.07;;;;;;;14.76;77.37;94308.94;5000811;28;20029;-91
2023/04/22 00:52:10;;;;;;;9.98;4.70;;;;;;;14.52;79.99;94314.41;5016806;28;20034;-90
2023/04/22 00:54:36;;;;;;;9.85;5.28;;;;;;;14.66;77.33;94317.06;5016750;28;20029;-91
2023/04/22 00:57:02;;;;;;;12.07;5.00;;;;;;;14.79;77.61;94318.94;5016209;28;20339;-91
2023/04/22 00:59:28;;;;;;;9.07;5.18;;;;;;;14.68;76.90;94312.25;5000518;28;20037;-91
2023/04/22 01:01:54;;;;;;;6.82;4.40;;;;;;;14.52;77.06;94314.41;5000753;28;20320;-91
2023/04/22 01:04:20;;;;;;;8.02;4.63;;;;;;;14.47;78.38;94312.66;5016683;28;20045;-91
2023/04/22 01:06:46;;;;;;;7.57;4.75;;;;;;;14.36;78.63;94308.66;5016505;28;20034;-91
2023/04/22 01:09:12;;;;;;;6.15;4.18;;;;;;;14.55;76.65;94317.25;5000297;28;20041;-91
2023/04/22 01:11:37;;;;;;;6.18;3.95;;;;;;;14.49;76.99;94305.25;5000402;28;20030;-91
2023/04/22 01:14:03;;;;;;;5.90;3.63;;;;;;;14.54;78.68;94313.03;5016614;28;20030;-91
2023/04/22 01:16:35;;;;;;;5.20;3.63;;;;;;;14.75;77.72;94311.91;4999855;28;20076;-91
2023/04/22 01:19:10;;;;;;;6.57;3.75;;;;;;;14.87;76.46;94309.53;5016204;28;20026;-91
2023/04/22 01:21:38;;;;;;;8.27;3.95;;;;;;;14.79;75.58;94305.75;5004987;28;20439;-91
2023/04/22 01:24:03;;;;;;;8.60;4.18;;;;;;;14.70;73.71;94303.00;4988339;28;20034;-91
2023/04/22 01:26:29;;;;;;;7.47;4.20;;;;;;;14.54;76.34;94291.97;4991645;28;20056;-91
2023/04/22 01:28:55;;;;;;;5.82;3.65;;;;;;;14.65;74.83;94300.44;5008405;28;20061;-91
2023/04/22 01:31:20;;;;;;;7.20;4.53;;;;;;;14.63;76.08;94301.78;4985885;28;20128;-91
2023/04/22 01:33:47;;;;;;;7.28;4.03;;;;;;;14.59;76.57;94301.63;5002770;28;20041;-91
2023/04/22 01:36:12;;;;;;;7.55;4.28;;;;;;;14.59;75.54;94300.84;4994768;28;20088;-91
2023/04/22 01:38:38;;;;;;;8.52;4.55;;;;;;;14.55;76.47;94293.53;4996703;28;20431;-91
2023/04/22 01:41:04;;;;;;;7.75;4.45;;;;;;;14.54;75.65;94288.53;4997709;28;20034;-91
2023/04/22 01:43:29;;;;;;;9.43;4.97;;;;;;;14.55;76.33;94293.53;4997661;28;20034;-91
2023/04/22 01:45:56;;;;;;;8.27;4.78;;;;;;;14.76;76.74;94295.75;4980455;28;20042;-91
2023/04/22 01:48:22;;;;;;;8.05;4.43;;;;;;;14.88;74.95;94291.84;4980438;28;20065;-92
2023/04/22 01:50:47;;;;;;;8.73;4.20;;;;;;;14.87;74.05;94285.81;4996185;28;20033;-91
2023/04/22 01:53:13;;;;;;;8.77;4.95;;;;;;;14.76;74.14;94292.34;4996401;28;20420;-92
2023/04/22 01:55:38;;;;;;;10.20;5.25;;;;;;;14.68;76.29;94299.09;4996478;28;20029;-91
2023/04/22 01:58:04;;;;;;;10.88;4.88;;;;;;;14.76;76.18;94300.28;4980321;28;20121;-92
2023/04/22 02:00:30;;;;;;;10.15;5.10;;;;;;;14.97;74.84;94298.75;4986046;28;20027;-91
2023/04/22 02:02:55;;;;;;;7.40;4.90;;;;;;;14.47;77.50;94301.34;4996439;28;20049;-91
2023/04/22 02:05:21;;;;;;;10.77;4.95;;;;;;;14.19;81.40;94299.44;4996575;28;20053;-91
2023/04/22 02:07:51;;;;;;;6.32;4.18;;;;;;;14.66;77.86;94293.31;4996133;28;20026;-92
2023/04/22 02:10:16;;;;;;;10.35;4.38;;;;;;;14.57;76.38;94290.59;4999681;28;20157;-91
2023/04/22 02:12:41;;;;;;;7.13;4.22;;;;;;;14.37;78.37;94297.03;5001313;28;20030;-91
2023/04/22 02:15:11;;;;;;;12.90;5.03;;;;;;;14.61;76.42;94291.56;5000275;28;20022;-90
2023/04/22 02:17:37;;;;;;;9.10;5.07;;;;;;;14.58;76.98;94289.53;5000700;28;20058;-91
2023/04/22 02:20:04;;;;;;;14.07;5.18;;;;;;;14.29;81.99;94295.88;5000165;28;20029;-91
2023/04/22 02:22:30;;;;;;;9.63;5.00;;;;;;;14.20;81.64;94302.88;5000459;28;20108;-91
2023/04/22 02:24:56;;;;;;;11.95;6.05;;;;;;;14.02;84.32;94304.50;5000280;28;20042;-91
2023/04/22 02:27:21;;;;;;;10.45;5.60;;;;;;;14.21;82.11;94302.59;4999996;28;20056;-92
2023/04/22 02:29:47;;;;;;;14.15;6.32;;;;;;;14.35;80.71;94299.19;5000015;28;20029;-92
2023/04/22 02:32:12;;;;;;;7.70;4.43;;;;;;;14.44;77.27;94302.69;5000427;28;20030;-92
2023/04/22 02:34:38;;;;;;;7.18;5.03;;;;;;;14.27;80.59;94295.34;5000240;28;20515;-92
2023/04/22 02:37:04;;;;;;;8.82;5.13;;;;;;;14.38;76.70;94306.50;4999942;28;20018;-91
2023/04/22 02:39:29;;;;;;;12.90;5.50;;;;;;;14.23;78.47;94297.00;4999702;28;20022;-91
2023/04/22 02:41:55;;;;;;;9.88;5.47;;;;;;;14.25;78.05;94297.50;4999714;28;20384;-91
2023/04/22 02:44:20;;;;;;;8.77;4.63;;;;;;;14.53;74.37;94292.25;4999848;28;20440;-91
2023/04/22 02:46:46;;;;;;;10.60;5.22;;;;;;;14.49;76.60;94299.19;4999968;28;20018;-91
2023/04/22 02:49:11;;;;;;;10.35;5.55;;;;;;;14.30;79.19;94296.63;4999706;28;20026;-91
2023/04/22 02:51:37;;;;;;;7.82;4.57;;;;;;;14.27;77.72;94293.50;4999649;28;20117;-92
2023/04/22 02:54:03;;;;;;;8.35;4.72;;;;;;;14.21;77.28;94294.69;4999610;28;20029;-91
2023/04/22 02:56:28;;;;;;;5.55;3.67;;;;;;;14.36;75.32;94292.84;5000877;28;20030;-91
2023/04/22 02:58:53;;;;;;;6.20;3.83;;;;;;;14.51;72.60;94286.47;4983332;28;20026;-91
2023/04/22 03:01:19;;;;;;;11.30;4.63;;;;;;;14.27;75.32;94282.97;4983490;28;20025;-91
2023/04/22 03:03:44;;;;;;;7.50;3.90;;;;;;;14.28;76.90;94292.44;4999600;28;20050;-91
2023/04/22 03:06:10;;;;;;;8.55;4.43;;;;;;;14.34;75.87;94282.59;4999495;28;20132;-91
2023/04/22 03:08:35;;;;;;;6.20;3.53;;;;;;;14.40;74.26;94286.66;4983173;28;20038;-92
2023/04/22 03:11:01;;;;;;;7.90;3.45;;;;;;;14.33;72.22;94288.94;5000567;28;20034;-91
2023/04/22 03:13:26;;;;;;;7.20;3.92;;;;;;;14.42;72.83;94287.19;4999282;28;20032;-92
2023/04/22 03:15:52;;;;;;;6.70;4.20;;;;;;;14.26;73.84;94286.69;4999196;28;20041;-91
2023/04/22 03:18:17;;;;;;;6.00;3.65;;;;;;;14.27;74.60;94282.19;4999136;28;20044;-92
2023/04/22 03:20:42;;;;;;;6.97;4.00;;;;;;;14.13;75.48;94282.19;4998702;28;20030;-92
2023/04/22 03:23:08;;;;;;;5.82;3.80;;;;;;;13.87;78.55;94287.91;4999182;28;20033;-91
2023/04/22 03:25:35;;;;;;;8.98;4.80;;;;;;;13.91;80.30;94285.47;4999069;28;20061;-91
2023/04/22 03:28:00;;;;;;;7.22;4.40;;;;;;;13.74;78.30;94280.75;4999096;28;20068;-91
2023/04/22 03:30:26;;;;;;;6.40;4.15;;;;;;;13.56;83.58;94281.28;4999033;28;20070;-91
2023/04/22 03:32:52;;;;;;;6.28;4.10;;;;;;;13.94;80.13;94280.41;4999005;28;20490;-92
2023/04/22 03:35:20;;;;;;;5.93;3.90;;;;;;;14.13;77.52;94277.72;4998999;28;20037;-91
2023/04/22 03:37:46;;;;;;;4.90;3.40;;;;;;;14.00;77.97;94273.97;4998695;28;20355;-91
2023/04/22 03:40:11;;;;;;;6.00;4.20;;;;;;;13.60;82.73;94283.34;4998951;28;20030;-92
2023/04/22 03:42:37;;;;;;;7.03;4.03;;;;;;;13.57;83.06;94272.34;4998904;28;20030;-91
2023/04/22 03:45:02;;;;;;;6.85;4.30;;;;;;;13.63;80.97;94273.03;4998755;28;20038;-91
2023/04/22 03:47:28;;;;;;;6.80;3.95;;;;;;;13.88;81.06;94280.78;4998908;28;20034;-91
2023/04/22 03:49:53;;;;;;;6.10;4.00;;;;;;;13.85;78.02;94282.94;4998407;28;20432;-91
2023/04/22 03:52:19;;;;;;;6.43;4.20;;;;;;;13.69;80.07;94282.41;4998425;28;20038;-91
2023/04/22 03:54:44;;;;;;;6.40;4.38;;;;;;;13.71;81.02;94280.25;4998749;28;20034;-91
2023/04/22 03:57:10;;;;;;;7.13;4.13;;;;;;;13.95;79.09;94279.34;4982384;28;20045;-91
2023/04/22 03:59:35;;;;;;;7.55;4.53;;;;;;;13.82;78.20;94282.72;4982220;28;20038;-91
2023/04/22 04:02:00;;;;;;;8.10;4.25;;;;;;;13.93;76.18;94286.75;4993889;28;20065;-91
2023/04/22 04:04:28;;;;;;;5.53;3.92;;;;;;;13.92;77.68;94284.41;5015843;28;20034;-92
2023/04/22 04:07:02;;;;;;;8.90;4.65;;;;;;;14.11;77.35;94282.47;4998717;28;20041;-91
2023/04/22 04:09:29;;;;;;;6.78;4.28;;;;;;;13.87;78.56;94280.00;4982053;28;20030;-90
2023/04/22 04:11:55;;;;;;;7.32;4.40;;;;;;;13.65;80.74;94288.53;5000494;28;20041;-91
2023/04/22 04:14:21;;;;;;;7.53;4.95;;;;;;;13.56;81.46;94283.94;4998331;28;20076;-92
2023/04/22 04:16:47;;;;;;;9.30;5.22;;;;;;;13.90;80.17;94287.31;4998053;28;20467;-92
2023/04/22 04:19:12;;;;;;;8.00;4.93;;;;;;;13.62;80.68;94276.72;4998055;28;20137;-92
2023/04/22 04:21:38;;;;;;;14.27;6.30;;;;;;;13.80;79.98;94290.91;4997732;28;20076;-91
2023/04/22 04:24:05;;;;;;;13.50;5.75;;;;;;;13.83;80.00;94287.69;4981821;28;20029;-92
2023/04/22 04:26:31;;;;;;;8.73;5.78;;;;;;;13.66;83.08;94293.50;4997896;28;20472;-92
2023/04/22 04:28:56;;;;;;;13.13;6.75;;;;;;;13.77;83.70;94286.22;4981668;28;20033;-91
2023/04/22 04:31:23;;;;;;;11.02;6.53;;;;;;;13.96;80.73;94291.44;4996934;28;20428;-91
2023/04/22 04:33:49;;;;;;;12.38;6.78;;;;;;;14.16;80.16;94286.09;4998182;28;20091;-92
2023/04/22 04:36:15;;;;;;;11.60;6.07;;;;;;;14.22;77.78;94290.97;4997622;28;20030;-92
2023/04/22 04:38:40;;;;;;;7.88;5.50;;;;;;;14.42;77.66;94270.56;4998588;28;20034;-92
2023/04/22 04:41:08;;;;;;;10.57;6.22;;;;;;;14.33;77.06;94281.03;4997813;28;20027;-91
2023/04/22 04:43:34;;;;;;;9.82;5.93;;;;;;;14.41;76.04;94285.59;4997993;28;20034;-92
2023/04/22 04:46:23;;;;;;;9.90;6.13;;;;;;;14.74;75.25;94276.81;4997507;28;20340;-92
2023/04/22 04:48:50;;;;;;;11.15;6.60;;;;;;;14.15;81.00;94282.66;4996618;28;20034;-91
2023/04/22 04:51:16;;;;;;;10.00;6.25;;;;;;;14.21;80.59;94294.69;4985598;28;20034;-91
2023/04/22 04:53:41;;;;;;;10.55;6.13;;;;;;;13.90;82.77;94295.22;4997468;28;20034;-91
2023/04/22 04:56:06;;;;;;;10.73;6.15;;;;;;;13.80;83.80;94292.78;4997227;28;20462;-91
2023/04/22 04:58:32;;;;;;;8.93;5.25;;;;;;;13.96;81.15;94301.19;4981173;28;20037;-91
2023/04/22 05:00:57;;;;;;;10.20;5.80;;;;;;;13.76;82.28;94297.03;4981124;28;20436;-92
2023/04/22 05:03:23;;;;;;;11.32;5.70;;;;;;;13.74;83.83;94297.34;4997177;28;20040;-92
2023/04/22 05:05:48;;;;;;;14.23;5.28;;;;;;;13.86;84.93;94294.22;4997401;28;20436;-91
2023/04/22 05:08:14;;;;;;;10.13;5.78;;;;;;;14.09;82.29;94310.19;4997155;28;20073;-91
2023/04/22 05:10:41;;;;;;;8.88;5.80;;;;;;;14.12;80.41;94307.72;4996989;28;20065;-92
2023/04/22 05:13:06;;;;;;;7.38;4.28;;;;;;;14.27;78.77;94309.31;5013677;28;20036;-92
2023/04/22 05:15:32;;;;;;;9.70;5.28;;;;;;;14.61;75.43;94302.09;4981081;28;20026;-91
2023/04/22 05:17:57;;;;;;;7.95;4.88;;;;;;;14.33;79.83;94306.59;5013441;28;20057;-91
2023/04/22 05:20:23;;;;;;;8.73;5.05;;;;;;;14.36;83.33;94303.38;4980817;28;20535;-92
2023/04/22 05:22:48;;;;;;;10.57;5.70;;;;;;;14.69;79.47;94308.56;4996968;28;20030;-91
2023/04/22 05:25:13;;;;;;;10.15;4.63;;;;;;;15.00;78.78;94307.19;4981423;28;20428;-91
2023/04/22 05:27:40;;;;;;;9.35;5.53;;;;;;;15.17;77.26;94315.25;4980976;28;20030;-93
2023/04/22 05:30:06;;;;;;;9.18;4.97;;;;;;;15.38;76.59;94318.22;4980777;28;20041;-93
2023/04/22 05:32:31;;;;;;;12.73;5.43;;;;;;;15.13;73.17;94315.06;4980710;28;20041;-92
2023/04/22 05:34:57;;;;;;;8.35;5.43;;;;;;;15.41;72.62;94312.34;4996784;28;20034;-92
2023/04/22 05:37:22;;;;;;;7.65;4.75;;;;;;;15.60;73.47;94315.91;4980613;28;20065;-92
2023/04/22 05:39:47;;;;;;;7.80;4.72;;;;;;;15.66;69.78;94317.31;4980674;28;20355;-92
2023/04/22 05:42:13;;;;;;;8.32;4.50;;;;;;;15.90;71.22;94324.97;4996543;28;20030;-92
2023/04/22 05:44:38;;;;;;;8.02;4.90;;;;;;;16.12;68.16;94323.38;4996591;28;20026;-93
2023/04/22 05:47:04;;;;;;;7.85;4.75;;;;;;;16.18;73.38;94324.81;5010670;28;20038;-92
2023/04/22 05:49:29;;;;;;;10.45;4.60;;;;;;;15.99;73.27;94313.66;4999995;28;20357;-91
2023/04/22 05:51:54;;;;;;;7.47;4.10;;;;;;;16.46;71.98;94321.97;4996391;28;20065;-91
2023/04/22 05:54:20;;;;;;;10.10;4.80;;;;;;;16.59;69.54;94319.53;4980688;28;20044;-90
2023/04/22 05:57:12;;;;;;;8.55;4.43;;;;;;;17.12;68.64;94322.34;4996610;28;20321;-92
2023/04/22 05:59:38;;;;;;;8.80;4.82;;;;;;;16.88;68.82;94318.22;4997639;28;20026;-91
2023/04/22 06:02:03;;;;;;;7.90;5.22;;;;;;;16.78;65.29;94320.03;4980876;28;20049;-92
2023/04/22 06:04:29;;;;;;;7.85;4.63;;;;;;;17.15;64.75;94319.06;4997708;28;20054;-92
2023/04/22 06:07:03;;;;;;;7.70;5.18;;;;;;;17.51;63.84;94323.31;4980362;28;20026;-93
2023/04/22 06:09:29;;;;;;;8.55;4.57;;;;;;;17.41;64.80;94320.94;4980474;28;20045;-92
2023/04/22 06:11:54;;;;;;;7.55;5.05;;;;;;;17.40;64.32;94320.16;4996461;28;20038;-91
2023/04/22 06:14:19;;;;;;;8.85;4.93;;;;;;;17.40;65.36;94322.81;4996449;28;20034;-91
2023/04/22 06:16:45;;;;;;;8.57;5.18;;;;;;;17.35;65.26;94326.38;4997244;28;20038;-91
2023/04/22 06:19:10;;;;;;;8.77;5.70;;;;;;;17.28;65.94;94320.00;4996153;28;20034;-92
2023/04/22 06:21:38;;;;;;;10.85;6.18;;;;;;;17.30;65.62;94326.56;4980228;28;20033;-91
2023/04/22 06:24:04;;;;;;;8.15;4.85;;;;;;;17.57;65.10;94329.97;4996229;28;20034;-92
2023/04/22 06:26:30;;;;;;;8.20;5.10;;;;;;;17.70;64.88;94336.19;4997998;28;20041;-91
2023/04/22 06:28:55;;;;;;;10.50;5.80;;;;;;;17.49;66.02;94342.13;5015659;28;20034;-91
2023/04/22 06:31:21;;;;;;;10.60;6.10;;;;;;;17.38;66.06;94340.88;4999645;28;20044;-92
2023/04/22 06:33:46;;;;;;;10.77;6.03;;;;;;;17.58;64.36;94339.50;4998976;28;20034;-91
2023/04/22 06:36:12;;;;;;;10.57;6.28;;;;;;;17.52;65.62;94343.41;4980124;28;20507;-92
2023/04/22 06:38:37;;;;;;;8.25;5.65;;;;;;;18.00;63.46;94346.16;4979877;28;20037;-93
2023/04/22 06:41:03;;;;;;;10.68;6.00;;;;;;;17.90;63.43;94352.56;4980267;28;20129;-90
2023/04/22 06:43:28;;;;;;;12.15;6.65;;;;;;;17.90;64.81;94341.97;5011853;28;20041;-91
2023/04/22 06:45:54;;;;;;;10.57;6.00;;;;;;;18.36;64.31;94345.78;4996104;28;20031;-91
2023/04/22 06:48:19;;;;;;;8.73;5.22;;;;;;;18.38;65.53;94348.13;4995760;28;20034;-91
2023/04/22 06:50:44;;;;;;;11.38;5.82;;;;;;;18.33;65.59;94342.97;4982247;28;20105;-91
2023/04/22 06:53:10;;;;;;;9.70;5.45;;;;;;;18.50;65.30;94342.91;4998975;28;20045;-91
2023/04/22 06:55:35;;;;;;;11.75;6.85;;;;;;;18.74;66.64;94338.91;4998060;28;20081;-92
2023/04/22 06:58:01;;;;;;;11.90;7.22;;;;;;;18.57;66.88;94345.06;4983246;28;20489;-91
2023/04/22 07:00:27;;;;;;;11.80;6.57;;;;;;;18.54;66.15;94345.72;4992910;28;20036;-90
2023/04/22 07:02:52;;;;;;;13.05;7.82;;;;;;;18.31;67.40;94345.97;5002743;28;20344;-90
2023/04/22 07:05:18;;;;;;;9.68;6.40;;;;;;;18.55;66.45;94349.16;4999232;28;20037;-93
2023/04/22 07:07:44;;;;;;;10.40;6.82;;;;;;;18.66;69.06;94347.72;4983600;28;20125;-92
2023/04/22 07:10:11;;;;;;;9.60;6.35;;;;;;;18.72;66.00;94348.28;5000511;28;20037;-92
2023/04/22 07:12:36;;;;;;;13.35;6.38;;;;;;;18.76;66.38;94349.97;4999308;28;20053;-92
2023/04/22 07:15:02;;;;;;;9.90;5.95;;;;;;;18.97;64.30;94346.63;4983184;28;20359;-91
2023/04/22 07:17:27;;;;;;;12.50;6.57;;;;;;;19.01;64.20;94338.78;4983413;28;20069;-92
2023/04/22 07:19:53;;;;;;;10.55;5.65;;;;;;;18.98;66.30;94339.41;4983208;28;20419;-93
2023/04/22 07:22:18;;;;;;;7.88;5.35;;;;;;;19.24;64.23;94336.66;5000269;28;20030;-92
2023/04/22 07:24:43;;;;;;;9.82;6.07;;;;;;;19.21;65.60;94337.28;4983108;28;20034;-91
2023/04/22 07:27:09;;;;;;;8.98;5.85;;;;;;;19.19;66.58;94328.84;4999201;28;20344;-92
2023/04/22 07:29:34;;;;;;;10.43;6.25;;;;;;;19.44;62.93;94315.72;4999050;28;20121;-92
2023/04/22 07:32:00;;;;;;;15.30;6.82;;;;;;;19.43;65.32;94322.91;4999178;28;20040;-92
2023/04/22 07:34:25;;;;;;;10.27;6.10;;;;;;;19.57;65.43;94325.31;4998895;28;20383;-92
2023/04/22 07:36:52;;;;;;;15.40;8.63;;;;;;;19.60;65.28;94326.53;4998825;28;20030;-93
2023/04/22 07:39:17;;;;;;;13.48;6.72;;;;;;;19.48;62.68;94329.91;4998761;28;20054;-92
2023/04/22 07:41:43;;;;;;;14.95;8.40;;;;;;;19.64;62.92;94336.16;4998799;28;20062;-92
2023/04/22 07:44:10;;;;;;;11.77;7.00;;;;;;;19.82;61.99;94329.94;4982630;28;20040;-93
2023/04/22 07:47:12;;;;;;;16.83;7.03;;;;;;;20.31;60.32;94324.00;4998671;28;20422;-92
2023/04/22 07:49:37;;;;;;;15.07;8.73;;;;;;;19.86;61.61;94326.31;4999693;28;20026;-92
2023/04/22 07:52:02;;;;;;;14.20;8.00;;;;;;;19.74;63.77;94327.03;4998395;28;20031;-92
2023/04/22 07:54:28;;;;;;;14.25;8.55;;;;;;;19.76;62.32;94327.50;4998438;28;20030;-92
2023/04/22 07:56:53;;;;;;;14.00;7.82;;;;;;;19.96;59.09;94324.38;4982447;28;20141;-92
2023/04/22 07:59:19;;;;;;;12.00;7.25;;;;;;;19.75;58.40;94325.94;4982324;28;20030;-92
2023/04/22 08:01:45;;;;;;;10.65;6.45;;;;;;;19.90;56.95;94327.19;4982524;28;20022;-93
2023/04/22 08:04:11;;;;;;;12.77;7.45;;;;;;;20.00;58.36;94328.69;4982484;28;20461;-91
2023/04/22 08:06:36;;;;;;;14.63;7.28;;;;;;;20.05;56.95;94331.16;4982193;28;20125;-92
2023/04/22 08:09:02;;;;;;;12.60;7.70;;;;;;;20.09;57.61;94331.28;4998096;28;20030;-91
2023/04/22 08:11:27;;;;;;;10.40;6.80;;;;;;;20.39;57.06;94331.13;4982109;28;20061;-92
2023/04/22 08:13:53;;;;;;;4.53;3.58;;;;;;;19.93;53.13;94320.47;4999259;28;20027;-93
2023/04/22 08:16:18;;;;;;;2.72;2.13;;;;;;;20.30;48.06;94322.44;4998017;28;20021;-92
2023/04/22 08:18:44;;;;;;;7.50;4.72;;;;;;;20.44;52.88;94322.91;4997947;28;20114;-92
2023/04/22 08:21:09;;;;;;;11.32;4.60;;;;;;;20.60;53.65;94322.25;4997910;28;20129;-92
2023/04/22 08:23:35;;;;;;;9.38;5.45;;;;;;;20.76;55.48;94333.03;4997952;28;20034;-92
2023/04/22 08:26:00;;;;;;;8.85;6.10;;;;;;;20.89;53.86;94320.50;4997905;28;20034;-93
2023/04/22 08:28:26;;;;;;;10.50;6.63;;;;;;;20.73;56.88;94323.81;4981612;28;20030;-92
2023/04/22 08:30:51;;;;;;;17.42;7.30;;;;;;;20.69;54.86;94330.91;4981869;28;20034;-91
2023/04/22 08:33:17;;;;;;;9.73;6.20;;;;;;;20.96;55.90;94330.59;4998835;28;20503;-91
2023/04/22 08:35:43;;;;;;;9.43;6.22;;;;;;;20.66;55.32;94326.25;4981771;28;20033;-92
2023/04/22 08:38:08;;;;;;;10.85;6.90;;;;;;;;;;4998708;28;20424;-91
2023/04/22 08:40:34;;;;;;;12.40;6.73;;;;;;;21.17;55.26;94338.44;4997978;28;20037;-92
2023/04/22 08:42:59;;;;;;;9.82;6.15;;;;;;;21.01;54.70;94330.34;4997638;28;20316;-93
2023/04/22 08:45:25;;;;;;;11.27;6.60;;;;;;;20.65;56.93;94331.91;4981698;28;20424;-93
2023/04/22 08:47:51;;;;;;;10.45;5.88;;;;;;;21.23;57.66;94318.47;4997330;28;20125;-93
2023/04/22 08:50:20;;;;;;;10.60;6.47;;;;;;;21.43;55.19;94321.31;4997466;28;20030;-93
2023/04/22 08:52:45;;;;;;;11.25;7.07;;;;;;;20.74;54.24;94309.38;4981384;28;20041;-92
2023/04/22 08:55:10;;;;;;;10.15;6.47;;;;;;;21.46;58.27;94299.31;4981223;28;20348;-91
2023/04/22 08:57:38;;;;;;;12.77;7.00;;;;;;;21.30;54.84;94309.88;4981227;28;20026;-92
2023/04/22 09:00:04;;;;;;;13.95;7.35;;;;;;;21.66;54.25;94307.47;4981332;28;20346;-92
2023/04/22 09:02:31;;;;;;;11.10;7.43;;;;;;;22.23;54.27;94316.19;4997272;28;20029;-92
2023/04/22 09:04:57;;;;;;;14.10;6.45;;;;;;;22.26;52.03;94323.50;4981158;28;20045;-93
2023/04/22 09:07:26;;;;;;;12.32;6.68;;;;;;;21.89;52.17;94319.16;4982231;28;20054;-92
2023/04/22 09:09:52;;;;;;;16.73;8.48;;;;;;;21.69;55.53;94317.47;4981160;28;20338;-92
2023/04/22 09:12:18;;;;;;;14.00;8.43;;;;;;;21.81;52.90;94314.75;4981005;28;20125;-92
2023/04/22 09:14:44;;;;;;;12.80;7.43;;;;;;;22.41;53.21;94313.19;4980959;28;20423;-92
2023/04/22 09:17:10;;;;;;;14.93;8.55;;;;;;;22.65;53.63;94330.19;4980598;28;20391;-92
2023/04/22 09:19:35;;;;;;;15.90;9.52;;;;;;;22.72;52.57;94323.13;4980437;28;20038;-91
2023/04/22 09:22:01;;;;;;;17.67;10.18;;;;;;;22.58;53.56;94320.13;4980877;28;20033;-92
2023/04/22 09:24:26;;;;;;;14.10;9.35;;;;;;;22.67;51.87;94320.72;4997040;28;20038;-93
2023/04/22 09:26:56;;;;;;;16.02;8.10;;;;;;;22.93;51.90;94308.69;4980795;28;20034;-93
2023/04/22 09:29:21;;;;;;;14.50;9.02;;;;;;;22.88;51.17;94308.97;4980925;28;20041;-92
2023/04/22 09:31:49;;;;;;;17.00;9.95;;;;;;;22.51;53.53;94310.03;4980662;28;20424;-92
2023/04/22 09:34:14;;;;;;;23.52;10.02;;;;;;;23.07;52.67;94302.91;4996656;28;20030;-92
2023/04/22 09:36:42;;;;;;;19.75;10.48;;;;;;;23.23;54.99;94300.16;4980879;28;20038;-91
2023/04/22 09:39:08;;;;;;;16.77;10.93;;;;;;;23.23;53.48;94294.81;4996687;28;20033;-94
2023/04/22 09:41:35;;;;;;;14.48;8.35;;;;;;;23.69;52.18;94286.22;4980627;28;20037;-93
2023/04/22 09:44:03;;;;;;;15.77;8.48;;;;;;;23.71;51.09;94286.63;4980850;28;20042;-94
2023/04/22 09:46:29;;;;;;;15.23;8.73;;;;;;;23.76;49.43;94284.81;4981102;28;20400;-92
2023/04/22 09:48:57;;;;;;;14.38;8.50;;;;;;;23.93;48.76;94279.00;4996731;28;20061;-94
2023/04/22 09:51:23;;;;;;;12.43;8.43;;;;;;;23.80;48.76;94282.97;4980843;28;20076;-94
2023/04/22 09:54:18;;;;;;;17.13;8.40;;;;;;;23.68;48.86;94275.88;4996636;28;20057;-93
2023/04/22 09:56:52;;;;;;;12.98;8.60;;;;;;;23.89;49.80;94278.19;4980236;28;20432;-93
2023/04/22 09:59:21;;;;;;;16.27;9.38;;;;;;;23.72;50.12;94276.72;4980765;28;20068;-93
2023/04/22 10:01:47;;;;;;;17.92;10.45;;;;;;;23.11;50.45;94270.94;4996582;28;20027;-93
2023/04/22 10:04:14;;;;;;;17.77;10.27;;;;;;;23.17;50.39;94280.19;4980461;28;20080;-92
2023/04/22 10:06:40;;;;;;;22.02;10.73;;;;;;;23.81;48.97;94271.91;4996555;28;20174;-92
2023/04/22 10:09:06;;;;;;;21.08;10.40;;;;;;;23.29;50.56;94282.00;5015912;28;20061;-92
2023/04/22 10:11:32;;;;;;;20.10;11.07;;;;;;;22.45;51.72;94280.13;5015929;28;20034;-91
2023/04/22 10:13:59;;;;;;;15.48;9.45;;;;;;;23.04;51.31;94276.09;5009391;28;20026;-92
2023/04/22 10:16:26;;;;;;;17.52;9.30;;;;;;;23.16;49.27;94268.72;4996058;28;20026;-91
2023/04/22 10:18:53;;;;;;;12.73;7.15;;;;;;;23.86;48.25;94270.84;4996215;28;20027;-92
2023/04/22 10:21:19;;;;;;;16.38;8.80;;;;;;;23.50;48.58;94264.84;4980221;28;20440;-91
2023/04/22 10:23:46;;;;;;;17.48;8.93;;;;;;;23.89;49.27;94274.72;4995956;28;20053;-93
2023/04/22 10:26:12;;;;;;;15.82;9.15;;;;;;;24.04;49.29;94265.84;4996191;28;20034;-91
2023/04/22 10:28:42;;;;;;;16.23;8.60;;;;;;;24.25;48.16;94264.69;4997145;28;20031;-93
2023/04/22 10:31:20;;;;;;;14.57;9.15;;;;;;;23.68;50.11;94265.94;4983162;28;20034;-91
2023/04/22 10:33:46;;;;;;;18.30;10.85;;;;;;;24.06;49.10;94260.91;4999987;28;20069;-93
2023/04/22 10:36:16;;;;;;;23.17;10.63;;;;;;;23.97;50.25;94258.44;4983908;28;20058;-92
2023/04/22 10:38:54;;;;;;;19.00;11.07;;;;;;;23.82;50.02;94256.66;4999932;28;20030;-94
2023/04/22 10:41:24;;;;;;;20.13;9.85;;;;;;;24.50;48.82;94253.56;5001030;28;20348;-91
2023/04/22 10:43:58;;;;;;;25.08;13.02;;;;;;;23.65;51.32;94255.97;4999748;28;20027;-92
2023/04/22 10:46:33;;;;;;;22.77;13.05;;;;;;;23.35;52.44;94263.78;4999665;28;20080;-92
2023/04/22 10:49:05;;;;;;;31.90;16.00;;;;;;;23.55;51.62;94251.97;4999699;28;20375;-92
2023/04/22 10:51:43;;;;;;;25.08;13.02;;;;;;;25.08;52.27;94257.09;4999972;28;20043;-93
2023/04/22 10:54:25;;;;;;;27.02;15.65;;;;;;;24.75;49.10;94255.84;4983660;28;20030;-92
2023/04/22 10:57:09;;;;;;;27.17;15.52;;;;;;;24.87;48.97;94249.53;4999690;28;20038;-91
2023/04/22 10:59:45;;;;;;;21.52;13.50;;;;;;;25.64;48.56;94239.41;4999528;28;20030;-92
2023/04/22 11:02:12;;;;;;;25.63;15.77;;;;;;;24.63;49.65;94244.22;4999514;28;20037;-92
2023/04/22 11:04:38;;;;;;;22.67;12.80;;;;;;;25.66;48.63;94239.78;4999170;28;20030;-92
2023/04/22 11:07:25;;;;;;;28.45;16.75;;;;;;;25.55;49.10;94239.69;4983356;28;20030;-92
2023/04/22 11:09:52;;;;;;;31.63;18.83;;;;;;;24.25;50.57;94244.03;4999452;28;20088;-90
2023/04/22 11:12:40;;;;;;;29.95;16.48;;;;;;;24.97;50.98;94230.94;4998837;28;20031;-89
2023/04/22 11:15:14;;;;;;;32.53;16.30;;;;;;;25.57;50.89;94227.81;4999051;28;20030;-91
2023/04/22 11:17:44;;;;;;;;;;;;;;;24.95;51.66;94233.19;4999319;28;20077;-91
2023/04/22 11:20:11;;;;;;;33.35;18.55;;;;;;;24.38;52.37;94233.88;5000026;28;19910;-90
2023/04/22 11:22:40;;;;;;;28.42;15.45;;;;;;;24.91;51.19;94224.34;4998902;28;20092;-91
2023/04/22 11:25:09;;;;;;;28.45;16.23;;;;;;;25.36;48.74;94229.09;4999998;28;20432;-90
2023/04/22 11:27:34;;;;;;;27.23;15.75;;;;;;;24.59;51.65;94230.00;4998821;28;20415;-90